Murdock, Kansas
Current Conditions -  °F | °C
As of 11:53 PM on Thursday 30 Oct 2014 (Local Time) from KICT Reporting Station
Clear Clear  
Wind Chill: 54°   Ceiling: Unl
Heat Index: 54°   Visibility: 10mi
Dew Point: 36°   Wind: 15mph
Humidity: 51%   Direction: 360°N
Pressure: 30.28"   Gusts: NA
Location:  37.61°N, 97.93°W
Report Text: KICT 310453Z 36013KT 10SM CLR 12/02 A3028 RMK AO2 SLP248 T01220022
Loading
Personal Weather Stations






























Interactive Weather Map
Tropical Storm Tracking
New forecast layout! Learn more

10-Day Weather Forecast

Advertisements
Track Severe Weather on mobile